Time;durP1;ratioP1;P1;durP2;ratioP2;P2;SDS_P1;SDS_P2;PMS_P1;PMS_P2;Temp;Humidity;BMP_temperature;BMP_pressure;BME280_temperature;BME280_humidity;BME280_pressure;Samples;Min_cycle;Max_cycle;Signal;HPM_P1;HPM_P2
2024/01/24 00:00:06;;;;;;;25.70;8.47;;;;;;;;;;5053286;28;20294;-83
2024/01/24 00:02:56;;;;;;;28.60;7.73;;;;;;;;;;5053687;28;20200;-83
2024/01/24 00:05:23;;;;;;;29.70;8.37;;;;;;;;;;5053669;28;20196;-84
2024/01/24 00:07:50;;;;;;;36.07;10.57;;;;;;;;;;5053362;28;20200;-84
2024/01/24 00:10:18;;;;;;;41.27;10.93;;;;;;;;;;5053426;28;20261;-83
2024/01/24 00:12:45;;;;;;;38.63;11.87;;;;;;;;;;5053177;28;20207;-83
2024/01/24 00:15:12;;;;;;;28.73;7.90;;;;;;;;;;5053577;28;20196;-83
2024/01/24 00:17:40;;;;;;;17.03;7.53;;;;;;;;;;5052320;28;20278;-84
2024/01/24 00:20:09;;;;;;;29.50;9.50;;;;;;;;;;5053132;28;20220;-84
2024/01/24 00:22:35;;;;;;;22.37;8.00;;;;;;;;;;5053220;28;20202;-83
2024/01/24 00:25:03;;;;;;;28.33;8.47;;;;;;;;;;5053416;28;20259;-83
2024/01/24 00:27:30;;;;;;;29.00;9.37;;;;;;;;;;5053413;28;20204;-84
2024/01/24 00:29:57;;;;;;;21.93;8.10;;;;;;;;;;5053234;28;20219;-84
2024/01/24 00:32:24;;;;;;;24.67;8.57;;;;;;;;;;5053816;28;20196;-83
2024/01/24 00:34:51;;;;;;;24.33;9.60;;;;;;;;;;5052865;28;20241;-84
2024/01/24 00:37:18;;;;;;;28.13;9.13;;;;;;;;;;5053289;28;20220;-83
2024/01/24 00:39:47;;;;;;;26.30;9.30;;;;;;;;;;5052978;28;20204;-83
2024/01/24 00:42:14;;;;;;;28.40;9.40;;;;;;;;;;5053582;28;20226;-85
2024/01/24 00:44:42;;;;;;;32.43;10.57;;;;;;;;;;5053272;28;20642;-85
2024/01/24 00:47:09;;;;;;;30.37;9.83;;;;;;;;;;5019381;28;20185;-86
2024/01/24 00:49:36;;;;;;;27.00;9.23;;;;;;;;;;5053168;28;20200;-86
2024/01/24 00:52:04;;;;;;;25.97;9.03;;;;;;;;;;5052176;28;20210;-88
2024/01/24 00:54:31;;;;;;;41.00;9.80;;;;;;;;;;5053263;28;20203;-86
2024/01/24 00:56:58;;;;;;;29.37;8.97;;;;;;;;;;5052897;28;20626;-86
2024/01/24 00:59:25;;;;;;;25.60;8.40;;;;;;;;;;5052998;28;20228;-84
2024/01/24 01:01:52;;;;;;;32.07;9.87;;;;;;;;;;5053663;28;20200;-85
2024/01/24 01:04:19;;;;;;;29.97;8.93;;;;;;;;;;5051851;28;20188;-85
2024/01/24 01:06:46;;;;;;;22.50;8.73;;;;;;;;;;5051951;28;20200;-85
2024/01/24 01:09:14;;;;;;;20.27;8.80;;;;;;;;;;5053048;28;20193;-81
2024/01/24 01:11:41;;;;;;;31.80;11.37;;;;;;;;;;5052844;28;20204;-86
2024/01/24 01:14:09;;;;;;;24.33;8.30;;;;;;;;;;5055509;28;20216;-85
2024/01/24 01:16:35;;;;;;;31.13;8.83;;;;;;;;;;5056528;28;20278;-86
2024/01/24 01:19:03;;;;;;;26.43;8.40;;;;;;;;;;5056256;28;20200;-86
2024/01/24 01:21:30;;;;;;;31.93;8.83;;;;;;;;;;5056194;28;20226;-87
2024/01/24 01:23:57;;;;;;;26.03;9.00;;;;;;;;;;5038751;28;20188;-87
2024/01/24 01:26:24;;;;;;;28.37;8.70;;;;;;;;;;5056359;28;20283;-86
2024/01/24 01:28:51;;;;;;;25.93;8.70;;;;;;;;;;5056266;28;20199;-87
2024/01/24 01:31:18;;;;;;;20.90;8.07;;;;;;;;;;5055360;28;20232;-87
2024/01/24 01:33:46;;;;;;;24.73;8.07;;;;;;;;;;5056558;28;20242;-87
2024/01/24 01:36:13;;;;;;;30.13;8.63;;;;;;;;;;5055824;28;20566;-86
2024/01/24 01:38:49;;;;;;;24.40;8.47;;;;;;;;;;5056251;28;20181;-87
2024/01/24 01:41:17;;;;;;;22.77;8.40;;;;;;;;;;5054892;28;20212;-86
2024/01/24 01:43:44;;;;;;;32.70;11.10;;;;;;;;;;5038557;28;20196;-87
2024/01/24 01:46:17;;;;;;;30.90;9.57;;;;;;;;;;5056146;28;20241;-87
2024/01/24 01:48:45;;;;;;;27.53;7.37;;;;;;;;;;5054774;28;20251;-87
2024/01/24 01:51:12;;;;;;;23.63;6.93;;;;;;;;;;5038704;28;20226;-87
2024/01/24 01:53:40;;;;;;;28.50;7.60;;;;;;;;;;5056044;28;20207;-87
2024/01/24 01:56:11;;;;;;;26.60;7.50;;;;;;;;;;5054767;28;20652;-87
2024/01/24 01:58:39;;;;;;;27.33;8.10;;;;;;;;;;5054818;28;20266;-86
2024/01/24 02:01:06;;;;;;;28.07;7.27;;;;;;;;;;5054307;28;20231;-85
2024/01/24 02:03:41;;;;;;;26.07;7.73;;;;;;;;;;5054342;28;20176;-85
2024/01/24 02:06:08;;;;;;;21.27;7.07;;;;;;;;;;5055736;28;20650;-85
2024/01/24 02:08:36;;;;;;;26.83;8.17;;;;;;;;;;5055559;28;20206;-84
2024/01/24 02:11:04;;;;;;;23.23;7.93;;;;;;;;;;5054324;28;20562;-85
2024/01/24 02:13:31;;;;;;;30.03;6.97;;;;;;;;;;5054189;28;20200;-84
2024/01/24 02:15:59;;;;;;;28.93;7.73;;;;;;;;;;5054301;28;20212;-84
2024/01/24 02:18:27;;;;;;;29.20;8.03;;;;;;;;;;5055274;28;20192;-84
2024/01/24 02:20:54;;;;;;;25.43;7.17;;;;;;;;;;5055098;28;20552;-84
2024/01/24 02:23:25;;;;;;;22.43;6.83;;;;;;;;;;5053736;28;20657;-82
2024/01/24 02:25:53;;;;;;;20.27;6.27;;;;;;;;;;5055155;28;20201;-84
2024/01/24 02:28:20;;;;;;;23.90;7.07;;;;;;;;;;5053719;28;20199;-84
2024/01/24 02:30:47;;;;;;;25.47;7.57;;;;;;;;;;5055055;28;20303;-84
2024/01/24 02:33:15;;;;;;;17.20;6.30;;;;;;;;;;5053572;28;20211;-85
2024/01/24 02:35:42;;;;;;;25.80;6.17;;;;;;;;;;5054730;28;20211;-85
2024/01/24 02:38:09;;;;;;;24.77;6.20;;;;;;;;;;5054995;28;20650;-85
2024/01/24 02:40:36;;;;;;;20.90;6.33;;;;;;;;;;5054554;28;20223;-84
2024/01/24 02:43:04;;;;;;;24.80;7.50;;;;;;;;;;5054961;28;20200;-82
2024/01/24 02:45:31;;;;;;;21.10;6.33;;;;;;;;;;5054585;28;20204;-82
2024/01/24 02:47:59;;;;;;;20.80;6.57;;;;;;;;;;5053241;28;20203;-82
2024/01/24 02:50:26;;;;;;;28.57;7.10;;;;;;;;;;5053821;28;20321;-82
2024/01/24 02:52:53;;;;;;;20.60;5.83;;;;;;;;;;5053977;28;20207;-82
2024/01/24 02:55:20;;;;;;;18.67;6.10;;;;;;;;;;5053679;28;20208;-82
2024/01/24 02:57:48;;;;;;;30.60;6.93;;;;;;;;;;5054115;28;20540;-83
2024/01/24 03:00:15;;;;;;;22.33;6.67;;;;;;;;;;5064087;28;20223;-83
2024/01/24 03:02:43;;;;;;;25.47;6.13;;;;;;;;;;5056739;28;20572;-83
2024/01/24 03:05:10;;;;;;;28.83;7.17;;;;;;;;;;5074265;28;20200;-83
2024/01/24 03:07:38;;;;;;;23.47;6.87;;;;;;;;;;5056409;28;20199;-83
2024/01/24 03:10:05;;;;;;;22.13;6.40;;;;;;;;;;5056332;28;20256;-83
2024/01/24 03:12:33;;;;;;;21.87;6.83;;;;;;;;;;5074365;28;20217;-83
2024/01/24 03:15:00;;;;;;;23.37;6.20;;;;;;;;;;5056541;28;20290;-84
2024/01/24 03:17:27;;;;;;;25.53;6.83;;;;;;;;;;5074229;28;20234;-84
2024/01/24 03:19:55;;;;;;;32.10;7.30;;;;;;;;;;5073729;28;20206;-85
2024/01/24 03:22:24;;;;;;;43.23;12.80;;;;;;;;;;5056412;28;20219;-86
2024/01/24 03:24:52;;;;;;;16.97;6.43;;;;;;;;;;5074134;28;20199;-85
2024/01/24 03:27:19;;;;;;;19.57;6.30;;;;;;;;;;5056334;28;20559;-86
2024/01/24 03:29:46;;;;;;;23.67;7.50;;;;;;;;;;5074032;28;20202;-86
2024/01/24 03:32:14;;;;;;;27.40;7.03;;;;;;;;;;5056213;28;20196;-86
2024/01/24 03:34:41;;;;;;;16.30;6.40;;;;;;;;;;5073826;28;20652;-86
2024/01/24 03:37:08;;;;;;;25.60;6.73;;;;;;;;;;5073467;28;20218;-84
2024/01/24 03:39:35;;;;;;;24.80;7.20;;;;;;;;;;5073775;28;20199;-83
2024/01/24 03:42:03;;;;;;;24.93;6.70;;;;;;;;;;5073610;28;20215;-84
2024/01/24 03:44:30;;;;;;;28.57;6.50;;;;;;;;;;5073729;28;20223;-84
2024/01/24 03:46:58;;;;;;;25.43;7.03;;;;;;;;;;5073956;28;20195;-84
2024/01/24 03:49:25;;;;;;;20.43;6.40;;;;;;;;;;5073688;28;20211;-84
2024/01/24 03:51:53;;;;;;;14.53;5.87;;;;;;;;;;5073527;28;20201;-84
2024/01/24 03:54:20;;;;;;;25.97;7.07;;;;;;;;;;5074111;28;20195;-85
2024/01/24 03:56:47;;;;;;;17.40;6.50;;;;;;;;;;5073858;28;20237;-85
2024/01/24 03:59:14;;;;;;;20.90;7.20;;;;;;;;;;5073803;28;20249;-84
2024/01/24 04:01:42;;;;;;;20.57;6.57;;;;;;;;;;5056382;28;20199;-85
2024/01/24 04:04:09;;;;;;;39.17;12.13;;;;;;;;;;5073811;28;20215;-86
2024/01/24 04:06:36;;;;;;;32.30;9.57;;;;;;;;;;5055925;28;20191;-87
2024/01/24 04:09:04;;;;;;;25.63;8.30;;;;;;;;;;5073495;28;20199;-87
2024/01/24 04:11:31;;;;;;;29.63;8.40;;;;;;;;;;5073597;28;20192;-86
2024/01/24 04:13:58;;;;;;;30.67;7.73;;;;;;;;;;5055965;28;20656;-86
2024/01/24 04:16:25;;;;;;;21.43;7.40;;;;;;;;;;5073660;28;21148;-87
2024/01/24 04:18:52;;;;;;;33.70;8.90;;;;;;;;;;5073286;28;20278;-87
2024/01/24 04:21:19;;;;;;;25.13;8.10;;;;;;;;;;5056552;28;20217;-85
2024/01/24 04:23:46;;;;;;;28.60;8.53;;;;;;;;;;5073473;28;20199;-86
2024/01/24 04:26:14;;;;;;;24.53;8.23;;;;;;;;;;5056049;28;20202;-82
2024/01/24 04:28:41;;;;;;;34.77;10.63;;;;;;;;;;5072975;28;20253;-83
2024/01/24 04:31:09;;;;;;;28.73;9.07;;;;;;;;;;5073551;28;20211;-83
2024/01/24 04:33:35;;;;;;;25.30;8.33;;;;;;;;;;5072759;28;20218;-83
2024/01/24 04:36:03;;;;;;;30.70;8.83;;;;;;;;;;5073520;28;20203;-83
2024/01/24 04:38:30;;;;;;;29.40;8.63;;;;;;;;;;5074346;28;20199;-82
2024/01/24 04:40:57;;;;;;;30.00;8.60;;;;;;;;;;5072906;28;20204;-82
2024/01/24 04:43:24;;;;;;;25.60;8.37;;;;;;;;;;5073440;28;20257;-83
2024/01/24 04:45:51;;;;;;;35.90;10.27;;;;;;;;;;5072470;28;20199;-83
2024/01/24 04:48:19;;;;;;;30.87;10.13;;;;;;;;;;5073871;28;20563;-83
2024/01/24 04:50:46;;;;;;;35.13;10.67;;;;;;;;;;5075439;28;20199;-83
2024/01/24 04:53:13;;;;;;;30.00;10.27;;;;;;;;;;5075273;28;20265;-82
2024/01/24 04:55:40;;;;;;;33.23;10.57;;;;;;;;;;5076255;28;20198;-83
2024/01/24 04:58:07;;;;;;;28.77;10.30;;;;;;;;;;5067056;28;20200;-83
2024/01/24 05:00:34;;;;;;;33.40;13.33;;;;;;;;;;5049221;28;20230;-82
2024/01/24 05:03:02;;;;;;;28.90;10.70;;;;;;;;;;5069524;28;20218;-83
2024/01/24 05:05:29;;;;;;;24.73;9.40;;;;;;;;;;5067668;28;20208;-84
2024/01/24 05:07:56;;;;;;;34.97;11.57;;;;;;;;;;5072905;28;20245;-83
2024/01/24 05:10:23;;;;;;;36.60;11.27;;;;;;;;;;5055935;28;20227;-82
2024/01/24 05:12:50;;;;;;;35.37;12.30;;;;;;;;;;5063138;28;20220;-83
2024/01/24 05:15:18;;;;;;;39.77;12.30;;;;;;;;;;5067004;28;20243;-82
2024/01/24 05:17:45;;;;;;;55.73;21.33;;;;;;;;;;5068105;28;20219;-82
2024/01/24 05:20:12;;;;;;;75.67;24.87;;;;;;;;;;5072055;28;20234;-83
2024/01/24 05:22:39;;;;;;;54.20;18.43;;;;;;;;;;5075527;28;20223;-83
2024/01/24 05:25:07;;;;;;;36.37;14.47;;;;;;;;;;5074667;28;20250;-82
2024/01/24 05:27:34;;;;;;;30.03;12.63;;;;;;;;;;5075678;28;20223;-83
2024/01/24 05:30:01;;;;;;;38.20;14.20;;;;;;;;;;5075360;28;20223;-83
2024/01/24 05:32:43;;;;;;;29.80;12.13;;;;;;;;;;5075943;28;20222;-84
2024/01/24 05:35:10;;;;;;;37.07;15.00;;;;;;;;;;5075447;28;20258;-83
2024/01/24 05:37:37;;;;;;;45.57;15.73;;;;;;;;;;5076788;28;20223;-83
2024/01/24 05:40:05;;;;;;;41.30;16.90;;;;;;;;;;5057254;28;20231;-85
2024/01/24 05:42:33;;;;;;;42.63;16.87;;;;;;;;;;5074875;28;20274;-83
2024/01/24 05:45:01;;;;;;;37.33;14.73;;;;;;;;;;5074661;28;20239;-82
2024/01/24 05:47:28;;;;;;;31.93;14.90;;;;;;;;;;5074690;28;20254;-82
2024/01/24 05:49:55;;;;;;;48.17;16.53;;;;;;;;;;5074649;28;20593;-83
2024/01/24 05:52:22;;;;;;;30.97;14.37;;;;;;;;;;5074585;28;20235;-82
2024/01/24 05:54:50;;;;;;;35.73;14.50;;;;;;;;;;5074104;28;20247;-84
2024/01/24 05:57:17;;;;;;;39.37;14.93;;;;;;;;;;5075137;28;20620;-84
2024/01/24 05:59:44;;;;;;;34.00;15.43;;;;;;;;;;5073923;28;20287;-84
2024/01/24 06:02:11;;;;;;;37.67;13.73;;;;;;;;;;5075041;28;20615;-83
2024/01/24 06:04:39;;;;;;;30.27;12.53;;;;;;;;;;5075540;28;20227;-84
2024/01/24 06:07:07;;;;;;;51.33;14.57;;;;;;;;;;5074513;28;20280;-84
2024/01/24 06:09:35;;;;;;;29.47;14.50;;;;;;;;;;5056257;28;20223;-83
2024/01/24 06:12:02;;;;;;;31.43;12.90;;;;;;;;;;5074568;28;20226;-83
2024/01/24 06:14:30;;;;;;;36.80;12.73;;;;;;;;;;5074673;28;20219;-84
2024/01/24 06:16:57;;;;;;;31.43;12.73;;;;;;;;;;5074699;28;20281;-83
2024/01/24 06:19:24;;;;;;;37.13;13.90;;;;;;;;;;5074547;28;20248;-83
2024/01/24 06:21:51;;;;;;;50.80;18.23;;;;;;;;;;5074008;28;20235;-84
2024/01/24 06:24:19;;;;;;;38.60;12.93;;;;;;;;;;5065042;28;20273;-83
2024/01/24 06:26:48;;;;;;;31.07;13.87;;;;;;;;;;5054105;28;20234;-84
2024/01/24 06:29:15;;;;;;;41.97;15.90;;;;;;;;;;5054284;28;20220;-83
2024/01/24 06:32:02;;;;;;;60.53;19.10;;;;;;;;;;5053993;28;20596;-84
2024/01/24 06:34:30;;;;;;;32.63;12.93;;;;;;;;;;5036323;28;20223;-83
2024/01/24 06:36:57;;;;;;;29.07;11.53;;;;;;;;;;5054073;28;20243;-83
2024/01/24 06:39:25;;;;;;;25.03;11.37;;;;;;;;;;5053343;28;20224;-83
2024/01/24 06:41:54;;;;;;;25.13;10.53;;;;;;;;;;5053662;28;20242;-83
2024/01/24 06:44:21;;;;;;;26.73;11.30;;;;;;;;;;5054192;28;20212;-83
2024/01/24 06:46:48;;;;;;;34.23;15.83;;;;;;;;;;5054382;28;20236;-84
2024/01/24 06:49:15;;;;;;;22.80;8.80;;;;;;;;;;5054331;28;20234;-83
2024/01/24 06:51:42;;;;;;;24.17;9.13;;;;;;;;;;5053790;28;20231;-84
2024/01/24 06:54:12;;;;;;;24.60;9.77;;;;;;;;;;5053800;28;20231;-85
2024/01/24 06:56:39;;;;;;;28.13;10.40;;;;;;;;;;5053870;28;20322;-83
2024/01/24 06:59:06;;;;;;;22.47;9.37;;;;;;;;;;5054630;28;20223;-83
2024/01/24 07:01:33;;;;;;;26.87;8.67;;;;;;;;;;5084044;28;20238;-84
2024/01/24 07:04:01;;;;;;;18.43;8.67;;;;;;;;;;5072021;28;20216;-84
2024/01/24 07:06:28;;;;;;;19.60;8.37;;;;;;;;;;5073395;28;20314;-84
2024/01/24 07:08:56;;;;;;;23.90;8.53;;;;;;;;;;5069390;28;20227;-83
2024/01/24 07:11:23;;;;;;;19.73;8.43;;;;;;;;;;5051799;28;20228;-83
2024/01/24 07:13:50;;;;;;;18.93;8.50;;;;;;;;;;5053714;28;20350;-83
2024/01/24 07:16:17;;;;;;;21.57;8.33;;;;;;;;;;5053076;28;20625;-83
2024/01/24 07:18:44;;;;;;;28.67;9.57;;;;;;;;;;5037478;28;20224;-83
2024/01/24 07:21:13;;;;;;;24.53;9.07;;;;;;;;;;5054393;28;20258;-83
2024/01/24 07:23:45;;;;;;;19.37;8.13;;;;;;;;;;5044202;28;20226;-83
2024/01/24 07:26:15;;;;;;;21.53;8.87;;;;;;;;;;5095240;28;20245;-83
2024/01/24 07:28:42;;;;;;;19.47;8.13;;;;;;;;;;5095080;28;20257;-83
2024/01/24 07:31:09;;;;;;;18.27;8.63;;;;;;;;;;5093751;28;20222;-83
2024/01/24 07:33:38;;;;;;;20.20;9.03;;;;;;;;;;5093121;28;20218;-83
2024/01/24 07:36:05;;;;;;;25.67;9.27;;;;;;;;;;5093752;28;20275;-83
2024/01/24 07:38:32;;;;;;;24.33;8.63;;;;;;;;;;5092359;28;20231;-83
2024/01/24 07:40:59;;;;;;;17.83;8.60;;;;;;;;;;5093743;28;20333;-83
2024/01/24 07:43:26;;;;;;;26.00;10.67;;;;;;;;;;5075259;28;20234;-83
2024/01/24 07:45:54;;;;;;;26.80;9.60;;;;;;;;;;5093622;28;20250;-83
2024/01/24 07:48:21;;;;;;;26.03;10.77;;;;;;;;;;5075107;28;20683;-83
2024/01/24 07:50:51;;;;;;;18.73;9.43;;;;;;;;;;5093372;28;20229;-83
2024/01/24 07:53:19;;;;;;;21.70;9.40;;;;;;;;;;5092365;28;20233;-82
2024/01/24 07:55:46;;;;;;;22.10;9.57;;;;;;;;;;5073783;28;20230;-83
2024/01/24 07:58:27;;;;;;;20.83;9.60;;;;;;;;;;5072847;28;20231;-84
2024/01/24 08:00:55;;;;;;;25.00;9.60;;;;;;;;;;5058192;28;20240;-83
2024/01/24 08:03:25;;;;;;;20.03;8.90;;;;;;;;;;5051648;28;20317;-83
2024/01/24 08:05:52;;;;;;;23.20;10.00;;;;;;;;;;5053379;28;20220;-84
2024/01/24 08:08:20;;;;;;;26.50;11.70;;;;;;;;;;5050756;28;20232;-82
2024/01/24 08:10:47;;;;;;;23.70;10.47;;;;;;;;;;5052483;28;20232;-83
2024/01/24 08:13:16;;;;;;;22.73;9.87;;;;;;;;;;5053035;28;20231;-83
2024/01/24 08:15:43;;;;;;;24.80;10.67;;;;;;;;;;5052867;28;20220;-83
2024/01/24 08:18:11;;;;;;;19.43;10.20;;;;;;;;;;5052548;28;20232;-83
2024/01/24 08:20:38;;;;;;;25.90;11.70;;;;;;;;;;5052772;28;20686;-83
2024/01/24 08:23:05;;;;;;;34.53;14.80;;;;;;;;;;5054175;28;20265;-83
2024/01/24 08:25:32;;;;;;;31.53;15.73;;;;;;;;;;5037746;28;20220;-83
2024/01/24 08:27:59;;;;;;;41.57;22.03;;;;;;;;;;5036825;28;20224;-83
2024/01/24 08:30:27;;;;;;;40.57;24.17;;;;;;;;;;5036844;28;20216;-82
2024/01/24 08:32:54;;;;;;;39.60;20.63;;;;;;;;;;5036990;28;20228;-83
2024/01/24 08:35:21;;;;;;;161.33;80.23;;;;;;;;;;5036664;28;20224;-82
2024/01/24 08:37:48;;;;;;;88.30;48.87;;;;;;;;;;5035183;28;20236;-83
2024/01/24 08:40:17;;;;;;;79.63;46.53;;;;;;;;;;5036718;28;20232;-83
2024/01/24 08:42:44;;;;;;;135.50;75.77;;;;;;;;;;5036395;28;20228;-83
2024/01/24 08:45:11;;;;;;;110.97;58.93;;;;;;;;;;5036876;28;20233;-83
2024/01/24 08:47:38;;;;;;;94.50;53.90;;;;;;;;;;5035534;28;20231;-83
2024/01/24 08:50:06;;;;;;;70.93;39.40;;;;;;;;;;5036387;28;20228;-83
2024/01/24 08:52:34;;;;;;;71.30;42.27;;;;;;;;;;5035832;28;20224;-83
2024/01/24 08:55:02;;;;;;;75.93;41.90;;;;;;;;;;5050123;28;20574;-83
2024/01/24 08:57:29;;;;;;;56.87;28.07;;;;;;;;;;5056222;28;20366;-82
2024/01/24 08:59:56;;;;;;;60.93;31.27;;;;;;;;;;5056031;28;20247;-83
2024/01/24 09:02:25;;;;;;;63.17;33.57;;;;;;;;;;5055881;28;20289;-82
2024/01/24 09:04:52;;;;;;;97.70;46.10;;;;;;;;;;5055815;28;20228;-83
2024/01/24 09:07:20;;;;;;;74.73;35.03;;;;;;;;;;5055550;28;20224;-82
2024/01/24 09:09:50;;;;;;;86.63;41.40;;;;;;;;;;5055690;28;20716;-83
2024/01/24 09:12:18;;;;;;;86.90;38.73;;;;;;;;;;5039119;28;20224;-81
2024/01/24 09:14:45;;;;;;;99.30;46.87;;;;;;;;;;5055489;28;20278;-82
2024/01/24 09:17:13;;;;;;;84.23;39.83;;;;;;;;;;5056327;28;20239;-83
2024/01/24 09:19:42;;;;;;;78.03;36.23;;;;;;;;;;5055457;28;20266;-83
2024/01/24 09:22:10;;;;;;;76.50;35.67;;;;;;;;;;5055939;28;20223;-83
2024/01/24 09:24:37;;;;;;;72.90;35.90;;;;;;;;;;5037201;28;20242;-83
2024/01/24 09:27:05;;;;;;;44.17;22.23;;;;;;;;;;5056061;28;20638;-82
2024/01/24 09:29:32;;;;;;;66.53;31.00;;;;;;;;;;5055780;28;20227;-82
2024/01/24 09:31:59;;;;;;;42.67;22.90;;;;;;;;;;5055937;28;20223;-83
2024/01/24 09:34:26;;;;;;;47.00;23.07;;;;;;;;;;5054009;28;20318;-82
2024/01/24 09:36:54;;;;;;;50.63;26.63;;;;;;;;;;5055925;28;20299;-83
2024/01/24 09:39:22;;;;;;;43.07;20.13;;;;;;;;;;5037218;28;20684;-82
2024/01/24 09:41:51;;;;;;;40.77;19.57;;;;;;;;;;5055583;28;20286;-82
2024/01/24 09:44:19;;;;;;;39.07;17.37;;;;;;;;;;5037471;28;20303;-81
2024/01/24 09:46:48;;;;;;;57.23;21.37;;;;;;;;;;5055658;28;20216;-82
2024/01/24 09:49:17;;;;;;;42.33;17.87;;;;;;;;;;5036971;28;20228;-82
2024/01/24 09:51:44;;;;;;;76.80;33.57;;;;;;;;;;5034884;28;20532;-83
2024/01/24 09:54:12;;;;;;;56.50;22.50;;;;;;;;;;5031878;28;20225;-83
2024/01/24 09:56:40;;;;;;;43.23;19.23;;;;;;;;;;5017576;28;20226;-82
2024/01/24 09:59:08;;;;;;;38.57;17.87;;;;;;;;;;5037659;28;20228;-82
2024/01/24 10:01:38;;;;;;;45.60;18.27;;;;;;;;;;5051864;28;20606;-83
2024/01/24 10:04:06;;;;;;;39.03;18.23;;;;;;;;;;5053723;28;20305;-82
2024/01/24 10:06:37;;;;;;;38.53;16.83;;;;;;;;;;5052251;28;20235;-82
2024/01/24 10:09:05;;;;;;;48.70;18.90;;;;;;;;;;5053479;28;20724;-82
2024/01/24 10:11:35;;;;;;;41.17;18.43;;;;;;;;;;5052979;28;20224;-82
2024/01/24 10:14:02;;;;;;;50.80;19.50;;;;;;;;;;5054082;28;20220;-83
2024/01/24 10:16:29;;;;;;;48.70;18.93;;;;;;;;;;5051855;28;20232;-82
2024/01/24 10:18:56;;;;;;;40.20;17.77;;;;;;;;;;5054358;28;20276;-82
2024/01/24 10:21:25;;;;;;;43.07;19.87;;;;;;;;;;5052290;28;20739;-82
2024/01/24 10:23:57;;;;;;;55.40;19.77;;;;;;;;;;5054209;28;20224;-83
2024/01/24 10:26:26;;;;;;;36.43;17.07;;;;;;;;;;5053799;28;20289;-82
2024/01/24 10:28:53;;;;;;;38.33;15.73;;;;;;;;;;5054614;28;20220;-83
2024/01/24 10:31:23;;;;;;;37.47;15.80;;;;;;;;;;5053946;28;20277;-82
2024/01/24 10:33:55;;;;;;;35.30;16.07;;;;;;;;;;5054352;28;20228;-82
2024/01/24 10:36:23;;;;;;;35.37;15.77;;;;;;;;;;5052359;28;20278;-82
2024/01/24 10:39:00;;;;;;;38.67;16.43;;;;;;;;;;5035321;28;20208;-83
2024/01/24 10:41:29;;;;;;;39.30;17.20;;;;;;;;;;5032887;28;20232;-83
2024/01/24 10:43:57;;;;;;;39.00;17.00;;;;;;;;;;5034326;28;20227;-83
2024/01/24 10:46:25;;;;;;;153.33;60.37;;;;;;;;;;5036395;28;20219;-82
2024/01/24 10:48:53;;;;;;;169.70;65.10;;;;;;;;;;5036783;28;20611;-82
2024/01/24 10:51:21;;;;;;;148.67;58.97;;;;;;;;;;5031754;28;20241;-82
2024/01/24 10:53:49;;;;;;;147.00;59.80;;;;;;;;;;5029508;28;20251;-83
2024/01/24 10:56:17;;;;;;;84.27;35.50;;;;;;;;;;5033882;28;20701;-82
2024/01/24 10:58:45;;;;;;;90.73;40.00;;;;;;;;;;5033476;28;20228;-82
2024/01/24 11:01:14;;;;;;;73.00;34.13;;;;;;;;;;5035795;28;20240;-82
2024/01/24 11:03:43;;;;;;;55.23;26.77;;;;;;;;;;5053277;28;20240;-83
2024/01/24 11:06:15;;;;;;;64.37;32.67;;;;;;;;;;5051905;28;20246;-83
2024/01/24 11:08:55;;;;;;;52.23;25.70;;;;;;;;;;5036511;28;20223;-83
2024/01/24 11:11:23;;;;;;;56.60;27.53;;;;;;;;;;5036176;28;20231;-83
2024/01/24 11:13:51;;;;;;;51.93;29.10;;;;;;;;;;5036188;28;20241;-81
2024/01/24 11:16:39;;;;;;;38.03;22.07;;;;;;;;;;5035301;28;20250;-82
2024/01/24 11:19:22;;;;;;;45.67;21.70;;;;;;;;;;5054040;28;20251;-83
2024/01/24 11:21:52;;;;;;;38.43;19.23;;;;;;;;;;5035434;28;20246;-83
2024/01/24 11:24:44;;;;;;;41.77;18.53;;;;;;;;;;5061616;28;20273;-82
2024/01/24 11:27:33;;;;;;;33.97;18.77;;;;;;;;;;5055678;28;20238;-83
2024/01/24 11:30:11;;;;;;;40.70;16.07;;;;;;;;;;5073138;28;20230;-82
2024/01/24 11:32:44;;;;;;;29.67;13.50;;;;;;;;;;5072602;28;20254;-83
2024/01/24 11:35:31;;;;;;;24.23;11.50;;;;;;;;;;5073485;28;20215;-83
2024/01/24 11:38:00;;;;;;;23.53;11.60;;;;;;;;;;5073198;28;20714;-83
2024/01/24 11:40:35;;;;;;;29.87;11.60;;;;;;;;;;5072632;28;20223;-81
2024/01/24 11:43:03;;;;;;;22.93;11.07;;;;;;;;;;5055150;28;20289;-82
2024/01/24 11:45:31;;;;;;;30.53;11.77;;;;;;;;;;5072767;28;20591;-82
2024/01/24 11:47:58;;;;;;;40.80;14.80;;;;;;;;;;5073071;28;20289;-82
2024/01/24 11:50:25;;;;;;;36.77;20.63;;;;;;;;;;5072962;28;20618;-82
2024/01/24 11:52:59;;;;;;;26.13;13.77;;;;;;;;;;5033427;28;20242;-82
2024/01/24 11:55:28;;;;;;;26.27;12.00;;;;;;;;;;5070118;28;20235;-82
2024/01/24 11:57:56;;;;;;;25.93;11.37;;;;;;;;;;5071995;28;20234;-82
2024/01/24 12:00:23;;;;;;;23.13;10.27;;;;;;;;;;5073900;28;20235;-82
2024/01/24 12:02:50;;;;;;;31.10;12.57;;;;;;;;;;5047285;28;20561;-82
2024/01/24 12:05:18;;;;;;;40.30;15.73;;;;;;;;;;5064821;28;20207;-82
2024/01/24 12:07:45;;;;;;;33.37;12.70;;;;;;;;;;5070221;28;20576;-82
2024/01/24 12:10:12;;;;;;;25.40;11.43;;;;;;;;;;5040508;28;20560;-82
2024/01/24 12:12:40;;;;;;;24.40;11.80;;;;;;;;;;5033350;28;20205;-82
2024/01/24 12:15:07;;;;;;;26.10;12.07;;;;;;;;;;5045137;28;20200;-82
2024/01/24 12:17:35;;;;;;;23.60;12.63;;;;;;;;;;5053605;28;20208;-82
2024/01/24 12:20:07;;;;;;;23.40;10.53;;;;;;;;;;5058034;28;20215;-82
2024/01/24 12:22:48;;;;;;;27.83;12.90;;;;;;;;;;5073402;28;20551;-82
2024/01/24 12:25:16;;;;;;;24.00;11.37;;;;;;;;;;5049042;28;20613;-82
2024/01/24 12:27:43;;;;;;;20.37;10.73;;;;;;;;;;5033517;28;20197;-82
2024/01/24 12:30:12;;;;;;;31.50;12.33;;;;;;;;;;5027244;28;20278;-82
2024/01/24 12:32:42;;;;;;;19.80;10.30;;;;;;;;;;5053550;28;20207;-82
2024/01/24 12:35:14;;;;;;;30.60;14.30;;;;;;;;;;5042499;28;20634;-82
2024/01/24 12:37:42;;;;;;;26.73;12.17;;;;;;;;;;5016665;28;20215;-83
2024/01/24 12:40:11;;;;;;;24.97;11.03;;;;;;;;;;5015991;28;20192;-82
2024/01/24 12:42:39;;;;;;;22.17;10.73;;;;;;;;;;5033922;28;20630;-82
2024/01/24 12:45:14;;;;;;;19.67;10.63;;;;;;;;;;5025885;28;20281;-82
2024/01/24 12:47:42;;;;;;;26.37;12.77;;;;;;;;;;5035997;28;20173;-83
2024/01/24 12:50:12;;;;;;;24.33;12.17;;;;;;;;;;5043189;28;20568;-82
2024/01/24 12:52:41;;;;;;;19.90;9.87;;;;;;;;;;5033337;28;20208;-84
2024/01/24 12:55:10;;;;;;;19.73;10.23;;;;;;;;;;5041524;28;20612;-82
2024/01/24 12:57:37;;;;;;;20.13;9.67;;;;;;;;;;5053031;28;20200;-82
2024/01/24 13:00:05;;;;;;;21.70;9.60;;;;;;;;;;5039327;28;20239;-83
2024/01/24 13:02:33;;;;;;;21.23;9.37;;;;;;;;;;5052872;28;20223;-82
2024/01/24 13:05:00;;;;;;;17.87;8.30;;;;;;;;;;5052737;28;20220;-82
2024/01/24 13:07:27;;;;;;;19.53;8.93;;;;;;;;;;5051732;28;20275;-82
2024/01/24 13:09:55;;;;;;;30.20;10.60;;;;;;;;;;5049305;28;20243;-82
2024/01/24 13:12:27;;;;;;;26.27;10.53;;;;;;;;;;5036737;28;20271;-83
2024/01/24 13:14:55;;;;;;;25.27;10.83;;;;;;;;;;5040042;28;20224;-84
2024/01/24 13:17:25;;;;;;;18.40;10.10;;;;;;;;;;5048118;28;20291;-84
2024/01/24 13:19:53;;;;;;;20.77;9.97;;;;;;;;;;5035371;28;20777;-84
2024/01/24 13:22:20;;;;;;;23.67;10.53;;;;;;;;;;5052202;28;20216;-83
2024/01/24 13:24:47;;;;;;;20.53;10.13;;;;;;;;;;5055217;28;20240;-83
2024/01/24 13:27:21;;;;;;;29.97;14.50;;;;;;;;;;5044480;28;20247;-83
2024/01/24 13:29:48;;;;;;;30.70;12.83;;;;;;;;;;5042730;28;20236;-83
2024/01/24 13:32:16;;;;;;;20.50;11.53;;;;;;;;;;5034969;28;20273;-81
2024/01/24 13:34:43;;;;;;;20.00;9.33;;;;;;;;;;5035228;28;20228;-81
2024/01/24 13:37:11;;;;;;;24.37;12.43;;;;;;;;;;5055158;28;20232;-81
2024/01/24 13:39:39;;;;;;;28.97;14.47;;;;;;;;;;5040515;28;20720;-80
2024/01/24 13:42:06;;;;;;;26.17;14.10;;;;;;;;;;5035223;28;20240;-81
2024/01/24 13:44:33;;;;;;;31.70;14.43;;;;;;;;;;5034957;28;20697;-81
2024/01/24 13:47:01;;;;;;;27.67;12.47;;;;;;;;;;5043973;28;20231;-81
2024/01/24 13:49:28;;;;;;;27.00;13.63;;;;;;;;;;5055301;28;20270;-80
2024/01/24 13:51:55;;;;;;;25.83;11.40;;;;;;;;;;5054245;28;20319;-81
2024/01/24 13:54:22;;;;;;;29.50;12.70;;;;;;;;;;5048228;28;20696;-81
2024/01/24 13:56:50;;;;;;;19.00;9.90;;;;;;;;;;5042928;28;20282;-81
2024/01/24 13:59:17;;;;;;;19.60;9.03;;;;;;;;;;5043475;28;20232;-81
2024/01/24 14:01:44;;;;;;;23.13;12.60;;;;;;;;;;5054517;28;20598;-81
2024/01/24 14:04:22;;;;;;;22.70;9.57;;;;;;;;;;5033994;28;20302;-80
2024/01/24 14:06:50;;;;;;;19.17;9.47;;;;;;;;;;5053828;28;20307;-80
2024/01/24 14:09:18;;;;;;;19.93;9.37;;;;;;;;;;5051120;28;20215;-81
2024/01/24 14:11:47;;;;;;;19.40;10.93;;;;;;;;;;5036444;28;20712;-80
2024/01/24 14:14:15;;;;;;;23.47;11.80;;;;;;;;;;5053441;28;20216;-80
2024/01/24 14:16:42;;;;;;;32.90;22.57;;;;;;;;;;5053528;28;20293;-80
2024/01/24 14:19:09;;;;;;;25.27;12.60;;;;;;;;;;5054191;28;20617;-82
2024/01/24 14:21:37;;;;;;;21.80;11.43;;;;;;;;;;5050424;28;20236;-82
2024/01/24 14:24:04;;;;;;;34.73;19.47;;;;;;;;;;5056432;28;20232;-82
2024/01/24 14:26:31;;;;;;;26.27;14.37;;;;;;;;;;5053358;28;20232;-82